createdAt,value
2023-03-30T00:00:18.738Z,11.50
2023-03-30T00:01:51.842Z,11.50
2023-03-30T00:03:24.797Z,11.50
2023-03-30T00:05:03.186Z,11.50
2023-03-30T00:06:39.330Z,11.50
2023-03-30T00:08:14.356Z,11.50
2023-03-30T00:09:46.493Z,11.50
2023-03-30T00:11:19.769Z,11.50
2023-03-30T00:12:52.900Z,11.50
2023-03-30T00:14:29.672Z,11.50
2023-03-30T00:16:03.744Z,11.60
2023-03-30T00:17:36.568Z,11.50
2023-03-30T00:19:09.712Z,11.50
2023-03-30T00:20:45.115Z,11.40
2023-03-30T00:22:18.094Z,11.40
2023-03-30T00:23:52.236Z,11.40
2023-03-30T00:25:24.978Z,11.30
2023-03-30T00:26:57.988Z,11.30
2023-03-30T00:28:31.765Z,11.30
2023-03-30T00:30:04.879Z,11.20
2023-03-30T00:31:37.915Z,11.20
2023-03-30T00:33:10.984Z,11.20
2023-03-30T00:34:42.969Z,11.20
2023-03-30T00:36:18.202Z,11.10
2023-03-30T00:37:51.356Z,11.10
2023-03-30T00:39:26.625Z,11.10
2023-03-30T00:41:02.057Z,11.10
2023-03-30T00:42:34.627Z,11.10
2023-03-30T00:44:09.896Z,11.10
2023-03-30T00:45:42.946Z,11.10
2023-03-30T00:47:16.406Z,11.10
2023-03-30T00:48:49.483Z,11.10
2023-03-30T00:50:27.347Z,11.10
2023-03-30T00:52:02.815Z,11.10
2023-03-30T00:53:38.432Z,11.10
2023-03-30T00:55:11.301Z,11.10
2023-03-30T00:56:44.517Z,11.10
2023-03-30T00:58:19.455Z,11.10
2023-03-30T00:59:52.305Z,11.10
2023-03-30T01:01:28.804Z,11.10
2023-03-30T01:03:06.249Z,11.00
2023-03-30T01:04:39.398Z,11.00
2023-03-30T01:06:13.743Z,11.00
2023-03-30T01:07:49.886Z,11.00
2023-03-30T01:09:23.668Z,11.00
2023-03-30T01:10:56.672Z,11.10
2023-03-30T01:12:29.888Z,11.10
2023-03-30T01:14:06.195Z,11.10
2023-03-30T01:15:47.637Z,11.20
2023-03-30T01:17:31.140Z,11.20
2023-03-30T01:19:23.695Z,11.20
2023-03-30T01:21:24.085Z,11.30
2023-03-30T01:23:28.446Z,11.30
2023-03-30T01:25:20.602Z,11.30
2023-03-30T01:26:58.058Z,11.20
2023-03-30T01:28:41.799Z,11.20
2023-03-30T01:30:32.352Z,11.20
2023-03-30T01:32:32.152Z,11.10
2023-03-30T01:34:25.720Z,11.00
2023-03-30T01:36:31.171Z,11.00
2023-03-30T01:38:47.371Z,10.90
2023-03-30T01:40:27.599Z,10.90
2023-03-30T01:42:09.373Z,10.90
2023-03-30T01:43:47.297Z,10.80
2023-03-30T01:45:27.714Z,10.80
2023-03-30T01:47:07.284Z,10.80
2023-03-30T01:48:45.709Z,10.80
2023-03-30T01:50:25.493Z,10.80
2023-03-30T01:52:03.798Z,10.90
2023-03-30T01:53:46.925Z,11.00
2023-03-30T01:55:24.649Z,11.00
2023-03-30T01:57:05.151Z,11.00
2023-03-30T01:58:41.462Z,11.10
2023-03-30T02:00:19.131Z,11.10
2023-03-30T02:01:54.209Z,11.10
2023-03-30T02:03:30.452Z,11.20
2023-03-30T02:05:06.413Z,11.20
2023-03-30T02:06:44.190Z,11.30
2023-03-30T02:08:22.516Z,11.30
2023-03-30T02:10:01.286Z,11.30
2023-03-30T02:11:38.074Z,11.40
2023-03-30T02:13:12.602Z,11.50
2023-03-30T02:14:48.023Z,11.50
2023-03-30T02:16:28.793Z,11.50
2023-03-30T02:18:03.153Z,11.60
2023-03-30T02:19:37.845Z,11.60
2023-03-30T02:21:10.847Z,11.50
2023-03-30T02:22:44.408Z,11.60
2023-03-30T02:24:23.770Z,11.60
2023-03-30T02:25:57.750Z,11.50
2023-03-30T02:27:33.827Z,11.50
2023-03-30T02:29:06.784Z,11.50
2023-03-30T02:30:43.926Z,11.50
2023-03-30T02:32:20.428Z,11.50
2023-03-30T02:34:08.356Z,11.40
2023-03-30T02:35:58.415Z,11.30
2023-03-30T02:38:00.405Z,11.30
2023-03-30T02:39:42.551Z,11.30
2023-03-30T02:41:28.422Z,11.30
2023-03-30T02:43:23.561Z,11.30
2023-03-30T02:45:05.687Z,11.30
2023-03-30T02:46:54.195Z,11.30
2023-03-30T02:48:40.791Z,11.20
2023-03-30T02:50:18.949Z,11.20
2023-03-30T02:51:54.446Z,11.20
2023-03-30T02:53:33.999Z,11.20
2023-03-30T02:55:15.515Z,11.20
2023-03-30T02:56:56.454Z,11.30
2023-03-30T02:58:37.946Z,11.30
2023-03-30T03:00:17.618Z,11.30
2023-03-30T03:01:54.465Z,11.30
2023-03-30T03:03:33.610Z,11.40
2023-03-30T03:05:08.527Z,11.50
2023-03-30T03:06:42.430Z,11.50
2023-03-30T03:08:15.891Z,11.60
2023-03-30T03:09:49.321Z,11.70
2023-03-30T03:11:22.455Z,11.70
2023-03-30T03:12:55.606Z,11.80
2023-03-30T03:14:30.725Z,11.90
2023-03-30T03:16:04.319Z,11.90
2023-03-30T03:17:39.024Z,12.00
2023-03-30T03:19:12.079Z,12.10
2023-03-30T03:20:44.030Z,12.10
2023-03-30T03:22:17.192Z,12.20
2023-03-30T03:23:50.322Z,12.30
2023-03-30T03:25:23.234Z,12.30
2023-03-30T03:26:56.969Z,12.40
2023-03-30T03:28:31.187Z,12.40
2023-03-30T03:30:05.974Z,12.50
2023-03-30T03:31:39.314Z,12.50
2023-03-30T03:33:12.448Z,12.50
2023-03-30T03:34:45.783Z,12.50
2023-03-30T03:36:18.649Z,12.50
2023-03-30T03:37:51.704Z,12.50
2023-03-30T03:39:24.899Z,12.50
2023-03-30T03:41:00.637Z,12.60
2023-03-30T03:42:33.668Z,12.70
2023-03-30T03:44:07.289Z,12.60
2023-03-30T03:45:41.707Z,12.70
2023-03-30T03:47:16.615Z,12.70
2023-03-30T03:48:49.915Z,12.80
2023-03-30T03:50:22.843Z,12.80
2023-03-30T03:51:55.828Z,12.80
2023-03-30T03:53:30.278Z,12.70
2023-03-30T03:55:03.636Z,12.70
2023-03-30T03:56:36.405Z,12.70
2023-03-30T03:58:09.370Z,12.60
2023-03-30T03:59:42.367Z,12.60
2023-03-30T04:01:16.734Z,12.60
2023-03-30T04:02:50.010Z,12.60
2023-03-30T04:04:22.873Z,12.60
2023-03-30T04:05:58.955Z,12.60
2023-03-30T04:07:31.946Z,12.60
2023-03-30T04:09:05.058Z,12.60
2023-03-30T04:10:39.081Z,12.50
2023-03-30T04:12:11.270Z,12.50
2023-03-30T04:13:44.379Z,12.50
2023-03-30T04:15:17.770Z,12.50
2023-03-30T04:16:52.496Z,12.50
2023-03-30T04:18:33.463Z,12.50
2023-03-30T04:20:12.362Z,12.60
2023-03-30T04:21:47.008Z,12.70
2023-03-30T04:23:22.156Z,12.80
2023-03-30T04:24:55.597Z,12.80
2023-03-30T04:26:28.868Z,12.80
2023-03-30T04:28:05.258Z,12.90
2023-03-30T04:29:40.576Z,12.90
2023-03-30T04:31:13.025Z,13.00
2023-03-30T04:32:54.714Z,13.00
2023-03-30T04:34:31.049Z,13.10
2023-03-30T04:36:04.454Z,13.10
2023-03-30T04:37:38.247Z,13.10
2023-03-30T04:39:12.119Z,13.20
2023-03-30T04:40:45.103Z,13.20
2023-03-30T04:42:20.204Z,13.20
2023-03-30T04:43:53.410Z,13.20
2023-03-30T04:45:26.528Z,13.20
2023-03-30T04:46:59.706Z,13.20
2023-03-30T04:48:34.006Z,13.20
2023-03-30T04:50:06.884Z,13.20
2023-03-30T04:51:49.402Z,13.30
2023-03-30T04:53:23.056Z,13.30
2023-03-30T04:54:56.442Z,13.30
2023-03-30T04:56:29.551Z,13.30
2023-03-30T04:58:02.599Z,13.30
2023-03-30T04:59:35.644Z,13.30
2023-03-30T05:01:08.829Z,13.30
2023-03-30T05:02:42.099Z,13.20
2023-03-30T05:04:16.329Z,13.20
2023-03-30T05:05:49.317Z,13.30
2023-03-30T05:07:21.702Z,13.20
2023-03-30T05:08:54.667Z,13.20
2023-03-30T05:10:27.970Z,13.30
2023-03-30T05:12:00.799Z,13.20
2023-03-30T05:13:33.748Z,13.20
2023-03-30T05:15:07.625Z,13.10
2023-03-30T05:16:40.669Z,13.10
2023-03-30T05:18:12.716Z,13.00
2023-03-30T05:19:47.786Z,13.00
2023-03-30T05:21:21.331Z,13.00
2023-03-30T05:22:54.503Z,13.00
2023-03-30T05:24:27.631Z,12.90
2023-03-30T05:26:00.656Z,13.00
2023-03-30T05:27:33.600Z,12.90
2023-03-30T05:29:06.731Z,12.90
2023-03-30T05:30:39.727Z,12.90
2023-03-30T05:32:12.803Z,12.90
2023-03-30T05:33:47.348Z,12.90
2023-03-30T05:35:21.919Z,12.90
2023-03-30T05:36:55.359Z,12.80
2023-03-30T05:38:28.353Z,12.80
2023-03-30T05:40:02.137Z,12.80
2023-03-30T05:41:35.127Z,12.80
2023-03-30T05:43:09.322Z,12.70
2023-03-30T05:44:42.549Z,12.70
2023-03-30T05:46:15.667Z,12.70
2023-03-30T05:47:48.698Z,12.70
2023-03-30T05:49:21.800Z,12.60
2023-03-30T05:50:56.151Z,12.60
2023-03-30T05:52:29.370Z,12.60
2023-03-30T05:54:03.494Z,12.60
2023-03-30T05:55:36.424Z,12.60
2023-03-30T05:57:09.685Z,12.60
2023-03-30T05:58:42.716Z,12.60
2023-03-30T06:00:16.752Z,12.50
2023-03-30T06:01:49.905Z,12.50
2023-03-30T06:03:23.037Z,12.50
2023-03-30T06:04:56.232Z,12.50
2023-03-30T06:06:31.034Z,12.50
2023-03-30T06:08:04.530Z,12.40
2023-03-30T06:09:38.588Z,12.40
2023-03-30T06:11:12.644Z,12.40
2023-03-30T06:12:45.981Z,12.50
2023-03-30T06:14:18.823Z,12.50
2023-03-30T06:15:52.131Z,12.50
2023-03-30T06:17:25.982Z,12.50
2023-03-30T06:18:59.209Z,12.50
2023-03-30T06:20:32.222Z,12.50
2023-03-30T06:22:07.100Z,12.50
2023-03-30T06:23:40.908Z,12.50
2023-03-30T06:25:14.244Z,12.50
2023-03-30T06:26:48.497Z,12.50
2023-03-30T06:28:21.521Z,12.50
2023-03-30T06:29:54.513Z,12.50
2023-03-30T06:31:27.597Z,12.50
2023-03-30T06:33:01.474Z,12.50
2023-03-30T06:34:34.431Z,12.50
2023-03-30T06:36:12.275Z,12.50
2023-03-30T06:37:46.971Z,12.50
2023-03-30T06:39:19.986Z,12.50
2023-03-30T06:40:52.984Z,12.60
2023-03-30T06:42:28.534Z,12.60
2023-03-30T06:44:01.482Z,12.60
2023-03-30T06:45:34.726Z,12.60
2023-03-30T06:47:08.065Z,12.60
2023-03-30T06:48:41.912Z,12.50
2023-03-30T06:50:14.933Z,12.50
2023-03-30T06:51:48.288Z,12.50
2023-03-30T06:53:22.810Z,12.50
2023-03-30T06:54:55.741Z,12.40
2023-03-30T06:56:28.776Z,12.40
2023-03-30T06:58:01.803Z,12.40
2023-03-30T06:59:35.485Z,12.30
2023-03-30T07:01:13.085Z,12.30
2023-03-30T07:02:46.197Z,12.30
2023-03-30T07:04:19.268Z,12.30
2023-03-30T07:05:53.127Z,12.20
2023-03-30T07:07:26.257Z,12.30
2023-03-30T07:09:00.709Z,12.20
2023-03-30T07:10:34.046Z,12.20
2023-03-30T07:12:07.175Z,12.30
2023-03-30T07:13:40.218Z,12.30
2023-03-30T07:15:14.000Z,12.40
2023-03-30T07:16:48.183Z,12.40
2023-03-30T07:18:21.528Z,12.40
2023-03-30T07:19:54.385Z,12.40
2023-03-30T07:21:27.535Z,12.30
2023-03-30T07:23:00.536Z,12.30
2023-03-30T07:24:35.376Z,12.30
2023-03-30T07:26:08.617Z,12.30
2023-03-30T07:27:42.007Z,12.30
2023-03-30T07:29:15.757Z,12.30
2023-03-30T07:30:49.001Z,12.30
2023-03-30T07:32:22.709Z,12.30
2023-03-30T07:33:55.814Z,12.30
2023-03-30T07:35:28.899Z,12.40
2023-03-30T07:37:01.974Z,12.40
2023-03-30T07:38:35.122Z,12.40
2023-03-30T07:40:13.037Z,12.40
2023-03-30T07:41:46.156Z,12.40
2023-03-30T07:43:19.119Z,12.30
2023-03-30T07:44:52.140Z,12.30
2023-03-30T07:46:25.353Z,12.40
2023-03-30T07:47:58.551Z,12.40
2023-03-30T07:49:31.826Z,12.30
2023-03-30T07:51:06.453Z,12.40
2023-03-30T07:52:39.780Z,12.40
2023-03-30T07:54:13.007Z,12.40
2023-03-30T07:55:47.590Z,12.40
2023-03-30T07:57:20.783Z,12.40
2023-03-30T07:58:53.842Z,12.30
2023-03-30T08:00:27.005Z,12.30
2023-03-30T08:02:00.519Z,12.30
2023-03-30T08:03:33.943Z,12.30
2023-03-30T08:05:07.662Z,12.30
2023-03-30T08:06:41.678Z,12.30
2023-03-30T08:08:14.736Z,12.40
2023-03-30T08:09:47.678Z,12.40
2023-03-30T08:11:22.134Z,12.40
2023-03-30T08:12:55.057Z,12.40
2023-03-30T08:14:28.577Z,12.40
2023-03-30T08:16:01.707Z,12.40
2023-03-30T08:17:34.818Z,12.40
2023-03-30T08:19:08.229Z,12.40
2023-03-30T08:20:41.674Z,12.40
2023-03-30T08:22:14.798Z,12.50
2023-03-30T08:23:47.922Z,12.50
2023-03-30T08:25:20.964Z,12.60
2023-03-30T08:26:55.319Z,12.60
2023-03-30T08:28:28.325Z,12.50
2023-03-30T08:30:02.081Z,12.50
2023-03-30T08:31:37.486Z,12.50
2023-03-30T08:33:10.632Z,12.40
2023-03-30T08:34:43.550Z,12.40
2023-03-30T08:36:17.047Z,12.30
2023-03-30T08:37:50.128Z,12.30
2023-03-30T08:39:23.121Z,12.20
2023-03-30T08:40:56.416Z,12.20
2023-03-30T08:42:40.775Z,12.20
2023-03-30T08:44:25.853Z,12.10
2023-03-30T08:46:00.607Z,12.10
2023-03-30T08:47:37.614Z,12.10
2023-03-30T08:49:16.046Z,12.20
2023-03-30T08:50:57.514Z,12.20
2023-03-30T08:52:32.716Z,12.20
2023-03-30T08:54:08.860Z,12.20
2023-03-30T08:55:46.138Z,12.30
2023-03-30T08:57:32.034Z,12.30
2023-03-30T08:59:17.317Z,12.30
2023-03-30T09:00:55.226Z,12.30
2023-03-30T09:02:32.004Z,12.30
2023-03-30T09:04:19.030Z,12.30
2023-03-30T09:05:56.441Z,12.40
2023-03-30T09:07:32.952Z,12.40
2023-03-30T09:09:06.734Z,12.40
2023-03-30T09:10:44.869Z,12.40
2023-03-30T09:12:24.977Z,12.40
2023-03-30T09:14:01.678Z,12.40
2023-03-30T09:15:40.701Z,12.50
2023-03-30T09:17:17.774Z,12.60
2023-03-30T09:18:54.617Z,12.70
2023-03-30T09:20:29.734Z,12.80
2023-03-30T09:22:06.876Z,12.90
2023-03-30T09:23:40.891Z,13.10
2023-03-30T09:25:17.121Z,13.20
2023-03-30T09:26:55.820Z,13.30
2023-03-30T09:28:34.619Z,13.40
2023-03-30T09:30:20.268Z,13.40
2023-03-30T09:32:03.465Z,13.40
2023-03-30T09:33:46.396Z,13.40
2023-03-30T09:35:24.835Z,13.30
2023-03-30T09:37:01.009Z,13.30
2023-03-30T09:38:35.184Z,13.30
2023-03-30T09:40:25.305Z,13.20
2023-03-30T09:42:12.881Z,13.20
2023-03-30T09:43:46.434Z,13.20
2023-03-30T09:45:23.483Z,13.10
2023-03-30T09:47:00.468Z,13.10
2023-03-30T09:48:40.431Z,13.10
2023-03-30T09:50:18.369Z,13.10
2023-03-30T09:51:57.141Z,13.10
2023-03-30T09:53:30.675Z,13.10
2023-03-30T09:55:24.964Z,13.10
2023-03-30T09:56:57.818Z,13.10
2023-03-30T09:58:32.443Z,13.10
2023-03-30T10:00:25.567Z,13.10
2023-03-30T10:02:20.680Z,13.10
2023-03-30T10:04:11.712Z,13.10
2023-03-30T10:05:45.075Z,13.20
2023-03-30T10:07:23.396Z,13.30
2023-03-30T10:08:57.152Z,13.30
2023-03-30T10:10:35.066Z,13.40
2023-03-30T10:12:08.356Z,13.50
2023-03-30T10:13:43.207Z,13.60
2023-03-30T10:15:18.563Z,13.70
2023-03-30T10:16:51.607Z,13.80
2023-03-30T10:18:29.593Z,13.90
2023-03-30T10:20:25.512Z,14.00
2023-03-30T10:22:04.170Z,13.80
2023-03-30T10:23:42.078Z,13.80
2023-03-30T10:25:21.246Z,13.80
2023-03-30T10:26:57.743Z,13.80
2023-03-30T10:28:33.788Z,13.80
2023-03-30T10:30:10.704Z,13.90
2023-03-30T10:31:47.102Z,14.00
2023-03-30T10:33:21.117Z,14.10
2023-03-30T10:35:05.379Z,14.20
2023-03-30T10:36:50.079Z,14.30
2023-03-30T10:38:25.573Z,14.50
2023-03-30T10:40:01.910Z,14.70
2023-03-30T10:41:37.027Z,14.90
2023-03-30T10:43:15.557Z,15.10
2023-03-30T10:44:52.608Z,15.30
2023-03-30T10:46:26.029Z,15.50
2023-03-30T10:48:12.943Z,15.60
2023-03-30T10:49:54.040Z,15.70
2023-03-30T10:51:38.026Z,15.80
2023-03-30T10:53:26.235Z,15.80
2023-03-30T10:55:05.442Z,15.80
2023-03-30T10:56:42.712Z,15.80
2023-03-30T10:58:28.328Z,15.80
2023-03-30T11:00:17.213Z,15.70
2023-03-30T11:02:08.137Z,15.70
2023-03-30T11:03:47.668Z,15.70
2023-03-30T11:05:25.687Z,15.80
2023-03-30T11:07:02.540Z,15.70
2023-03-30T11:08:39.318Z,15.80
2023-03-30T11:10:18.472Z,15.80
2023-03-30T11:11:56.686Z,15.90
2023-03-30T11:13:32.978Z,16.00
2023-03-30T11:15:10.762Z,16.00
2023-03-30T11:16:51.414Z,16.10
2023-03-30T11:18:30.601Z,16.10
2023-03-30T11:20:18.322Z,16.20
2023-03-30T11:21:59.435Z,16.20
2023-03-30T11:23:43.453Z,16.40
2023-03-30T11:25:21.267Z,16.50
2023-03-30T11:27:00.585Z,16.50
2023-03-30T11:28:52.830Z,16.60
2023-03-30T11:30:29.596Z,16.70
2023-03-30T11:32:15.486Z,16.90
2023-03-30T11:33:55.525Z,16.90
2023-03-30T11:35:36.139Z,16.80
2023-03-30T11:37:16.229Z,16.70
2023-03-30T11:38:58.751Z,16.50
2023-03-30T11:40:39.877Z,16.30
2023-03-30T11:42:17.982Z,16.10
2023-03-30T11:43:55.874Z,16.00
2023-03-30T11:45:48.591Z,16.00
2023-03-30T11:47:41.926Z,16.00
2023-03-30T11:49:37.042Z,16.20
2023-03-30T11:51:26.225Z,16.40
2023-03-30T11:53:11.215Z,16.50
2023-03-30T11:55:12.782Z,16.60
2023-03-30T11:56:51.940Z,16.60
2023-03-30T11:58:33.442Z,16.50
2023-03-30T12:00:36.965Z,16.30
2023-03-30T12:02:21.867Z,16.00
2023-03-30T12:03:58.758Z,15.80
2023-03-30T12:05:37.447Z,15.70
2023-03-30T12:07:23.994Z,15.70
2023-03-30T12:09:19.165Z,15.80
2023-03-30T12:11:15.903Z,15.90
2023-03-30T12:12:51.919Z,16.10
2023-03-30T12:14:44.521Z,16.30
2023-03-30T12:16:21.216Z,16.40
2023-03-30T12:17:58.245Z,16.30
2023-03-30T12:19:52.983Z,16.40
2023-03-30T12:21:33.644Z,16.60
2023-03-30T12:23:23.444Z,16.60
2023-03-30T12:25:03.679Z,16.60
2023-03-30T12:26:39.000Z,16.70
2023-03-30T12:28:14.108Z,16.80
2023-03-30T12:30:02.351Z,16.90
2023-03-30T12:32:05.836Z,17.20
2023-03-30T12:33:47.285Z,17.40
2023-03-30T12:35:55.553Z,17.50
2023-03-30T12:37:33.423Z,17.60
2023-03-30T12:39:14.888Z,17.40
2023-03-30T12:40:56.018Z,17.40
2023-03-30T12:42:35.297Z,17.40
2023-03-30T12:44:25.330Z,17.60
2023-03-30T12:46:08.314Z,17.70
2023-03-30T12:48:02.864Z,17.90
2023-03-30T12:49:51.666Z,18.10
2023-03-30T12:51:41.878Z,18.20
2023-03-30T12:53:39.482Z,18.20
2023-03-30T12:55:26.447Z,18.10
2023-03-30T12:57:08.763Z,18.10
2023-03-30T12:59:10.294Z,17.90
2023-03-30T13:01:17.875Z,17.60
2023-03-30T13:03:08.119Z,17.50
2023-03-30T13:04:48.905Z,17.50
2023-03-30T13:06:35.952Z,17.50
2023-03-30T13:08:11.524Z,17.60
2023-03-30T13:09:55.610Z,17.50
2023-03-30T13:11:45.624Z,17.40
2023-03-30T13:13:45.695Z,17.40
2023-03-30T13:15:35.832Z,17.30
2023-03-30T13:17:15.598Z,17.20
2023-03-30T13:18:54.668Z,17.10
2023-03-30T13:20:33.867Z,17.10
2023-03-30T13:22:25.028Z,17.20
2023-03-30T13:24:23.361Z,17.20
2023-03-30T13:26:06.064Z,17.20
2023-03-30T13:27:42.852Z,17.20
2023-03-30T13:29:18.444Z,17.10
2023-03-30T13:30:59.183Z,17.30
2023-03-30T13:32:52.695Z,17.30
2023-03-30T13:34:40.381Z,17.30
2023-03-30T13:36:16.871Z,17.30
2023-03-30T13:38:04.192Z,17.50
2023-03-30T13:39:44.054Z,17.60
2023-03-30T13:41:34.367Z,17.90
2023-03-30T13:43:11.999Z,18.00
2023-03-30T13:44:56.768Z,18.10
2023-03-30T13:46:37.718Z,17.90
2023-03-30T13:48:31.746Z,17.70
2023-03-30T13:50:13.290Z,17.40
2023-03-30T13:51:47.682Z,17.00
2023-03-30T13:53:21.008Z,16.80
2023-03-30T13:54:53.867Z,16.90
2023-03-30T13:56:28.101Z,16.80
2023-03-30T13:58:04.242Z,16.90
2023-03-30T13:59:40.206Z,17.00
2023-03-30T14:01:15.377Z,17.20
2023-03-30T14:02:50.056Z,17.20
2023-03-30T14:04:24.091Z,17.40
2023-03-30T14:06:03.769Z,17.50
2023-03-30T14:07:43.540Z,17.70
2023-03-30T14:09:22.452Z,17.80
2023-03-30T14:10:56.353Z,18.00
2023-03-30T14:12:29.563Z,17.90
2023-03-30T14:14:03.217Z,17.70
2023-03-30T14:15:38.807Z,17.60
2023-03-30T14:17:16.997Z,17.50
2023-03-30T14:18:51.911Z,17.50
2023-03-30T14:20:41.388Z,17.50
2023-03-30T14:22:20.022Z,17.70
2023-03-30T14:23:54.542Z,17.90
2023-03-30T14:25:32.763Z,18.20
2023-03-30T14:27:08.558Z,18.40
2023-03-30T14:28:42.599Z,18.30
2023-03-30T14:30:20.467Z,18.20
2023-03-30T14:32:06.577Z,18.10
2023-03-30T14:33:41.885Z,18.00
2023-03-30T14:35:19.403Z,17.90
2023-03-30T14:36:52.448Z,17.80
2023-03-30T14:38:28.280Z,17.60
2023-03-30T14:40:01.718Z,17.50
2023-03-30T14:41:34.766Z,17.30
2023-03-30T14:43:12.726Z,17.30
2023-03-30T14:44:48.205Z,17.30
2023-03-30T14:46:21.696Z,17.30
2023-03-30T14:47:56.408Z,17.20
2023-03-30T14:49:32.634Z,17.20
2023-03-30T14:51:20.437Z,17.30
2023-03-30T14:52:53.727Z,17.30
2023-03-30T14:54:26.588Z,17.40
2023-03-30T14:56:01.453Z,17.50
2023-03-30T14:57:38.004Z,17.50
2023-03-30T14:59:13.123Z,17.40
2023-03-30T15:00:47.047Z,17.20
2023-03-30T15:02:22.675Z,17.10
2023-03-30T15:03:56.096Z,16.90
2023-03-30T15:05:33.019Z,16.70
2023-03-30T15:07:07.566Z,16.50
2023-03-30T15:08:41.734Z,16.50
2023-03-30T15:10:23.284Z,16.40
2023-03-30T15:12:00.325Z,16.50
2023-03-30T15:13:37.247Z,16.50
2023-03-30T15:15:14.727Z,16.40
2023-03-30T15:16:53.525Z,16.30
2023-03-30T15:18:29.039Z,16.30
2023-03-30T15:20:06.277Z,16.20
2023-03-30T15:21:40.127Z,16.10
2023-03-30T15:23:14.947Z,16.10
2023-03-30T15:24:48.950Z,16.10
2023-03-30T15:26:22.086Z,16.00
2023-03-30T15:28:00.164Z,16.00
2023-03-30T15:29:34.062Z,16.00
2023-03-30T15:31:07.621Z,15.90
2023-03-30T15:32:41.711Z,15.90
2023-03-30T15:34:17.459Z,16.00
2023-03-30T15:35:52.806Z,16.00
2023-03-30T15:37:25.844Z,16.10
2023-03-30T15:39:00.717Z,16.20
2023-03-30T15:40:36.970Z,16.40
2023-03-30T15:42:11.352Z,16.50
2023-03-30T15:44:11.156Z,16.60
2023-03-30T15:45:49.111Z,16.60
2023-03-30T15:47:22.299Z,16.50
2023-03-30T15:48:55.870Z,16.30
2023-03-30T15:50:29.005Z,16.20
2023-03-30T15:52:03.264Z,16.10
2023-03-30T15:53:42.101Z,16.00
2023-03-30T15:55:22.427Z,15.90
2023-03-30T15:57:03.821Z,15.80
2023-03-30T15:58:37.069Z,15.80
2023-03-30T16:00:17.112Z,15.80
2023-03-30T16:01:54.351Z,15.90
2023-03-30T16:03:36.665Z,16.00
2023-03-30T16:05:18.670Z,16.10
2023-03-30T16:06:52.553Z,16.10
2023-03-30T16:08:25.518Z,16.20
2023-03-30T16:09:58.492Z,16.30
2023-03-30T16:11:32.869Z,16.40
2023-03-30T16:13:07.192Z,16.50
2023-03-30T16:14:40.775Z,16.70
2023-03-30T16:16:14.024Z,16.80
2023-03-30T16:17:46.971Z,17.00
2023-03-30T16:19:20.680Z,17.10
2023-03-30T16:20:53.684Z,17.20
2023-03-30T16:22:26.712Z,17.20
2023-03-30T16:23:59.712Z,17.20
2023-03-30T16:25:44.077Z,17.20
2023-03-30T16:27:19.675Z,17.10
2023-03-30T16:28:54.842Z,17.00
2023-03-30T16:30:31.352Z,16.90
2023-03-30T16:32:04.371Z,16.80
2023-03-30T16:33:37.569Z,16.60
2023-03-30T16:35:10.908Z,16.60
2023-03-30T16:36:44.062Z,16.50
2023-03-30T16:38:18.529Z,16.50
2023-03-30T16:39:51.432Z,16.40
2023-03-30T16:41:24.653Z,16.40
2023-03-30T16:42:58.982Z,16.30
2023-03-30T16:44:31.924Z,16.10
2023-03-30T16:46:04.956Z,15.90
2023-03-30T16:47:38.268Z,15.70
2023-03-30T16:49:12.792Z,15.50
2023-03-30T16:50:47.085Z,15.40
2023-03-30T16:52:20.560Z,15.20
2023-03-30T16:53:53.554Z,15.10
2023-03-30T16:55:26.644Z,15.00
2023-03-30T16:56:59.868Z,14.90
2023-03-30T16:58:34.448Z,14.80
2023-03-30T17:00:17.356Z,14.70
2023-03-30T17:01:50.791Z,14.60
2023-03-30T17:03:23.874Z,14.60
2023-03-30T17:04:56.966Z,14.50
2023-03-30T17:06:30.062Z,14.50
2023-03-30T17:08:05.716Z,14.40
2023-03-30T17:09:38.689Z,14.40
2023-03-30T17:11:13.545Z,14.30
2023-03-30T17:12:46.618Z,14.30
2023-03-30T17:14:23.233Z,14.30
2023-03-30T17:15:58.375Z,14.30
2023-03-30T17:17:31.470Z,14.30
2023-03-30T17:19:04.756Z,14.30
2023-03-30T17:20:40.496Z,14.30
2023-03-30T17:22:15.535Z,14.40
2023-03-30T17:23:49.056Z,14.50
2023-03-30T17:25:23.770Z,14.60
2023-03-30T17:26:57.705Z,14.70
2023-03-30T17:28:32.447Z,14.80
2023-03-30T17:30:17.829Z,14.80
2023-03-30T17:31:50.904Z,15.00
2023-03-30T17:33:24.689Z,15.00
2023-03-30T17:34:57.603Z,15.10
2023-03-30T17:36:30.617Z,15.10
2023-03-30T17:38:05.542Z,15.00
2023-03-30T17:39:38.482Z,15.00
2023-03-30T17:41:13.304Z,14.90
2023-03-30T17:42:46.685Z,14.80
2023-03-30T17:44:21.635Z,14.80
2023-03-30T17:45:55.986Z,14.70
2023-03-30T17:47:28.947Z,14.70
2023-03-30T17:49:02.078Z,14.60
2023-03-30T17:50:36.843Z,14.60
2023-03-30T17:52:09.822Z,14.60
2023-03-30T17:53:42.831Z,14.50
2023-03-30T17:55:15.812Z,14.40
2023-03-30T17:56:50.593Z,14.30
2023-03-30T17:58:25.443Z,14.20
2023-03-30T17:59:58.525Z,14.10
2023-03-30T18:01:35.579Z,14.00
2023-03-30T18:03:09.194Z,13.80
2023-03-30T18:04:42.629Z,13.70
2023-03-30T18:06:15.652Z,13.60
2023-03-30T18:07:48.735Z,13.60
2023-03-30T18:09:21.776Z,13.50
2023-03-30T18:10:56.618Z,13.50
2023-03-30T18:12:29.541Z,13.40
2023-03-30T18:14:02.499Z,13.30
2023-03-30T18:15:35.576Z,13.10
2023-03-30T18:17:10.997Z,13.10
2023-03-30T18:18:44.002Z,13.00
2023-03-30T18:20:24.662Z,12.90
2023-03-30T18:21:57.619Z,12.80
2023-03-30T18:23:31.468Z,12.70
2023-03-30T18:25:04.545Z,12.60
2023-03-30T18:26:39.626Z,12.40
2023-03-30T18:28:16.735Z,12.30
2023-03-30T18:29:49.826Z,12.10
2023-03-30T18:31:23.176Z,12.00
2023-03-30T18:32:57.423Z,11.90
2023-03-30T18:34:30.311Z,11.80
2023-03-30T18:36:05.990Z,11.70
2023-03-30T18:37:39.246Z,11.60
2023-03-30T18:39:18.579Z,11.50
2023-03-30T18:40:57.923Z,11.40
2023-03-30T18:42:31.326Z,11.30
2023-03-30T18:44:04.317Z,11.30
2023-03-30T18:45:39.484Z,11.20
2023-03-30T18:47:12.505Z,11.20
2023-03-30T18:48:47.181Z,11.10
2023-03-30T18:50:23.121Z,11.10
2023-03-30T18:51:56.262Z,11.20
2023-03-30T18:53:29.897Z,11.10
2023-03-30T18:55:02.914Z,11.10
2023-03-30T18:56:36.643Z,11.10
2023-03-30T18:58:15.288Z,11.10
2023-03-30T18:59:48.382Z,11.10
2023-03-30T19:01:21.468Z,11.20
2023-03-30T19:02:56.544Z,11.20
2023-03-30T19:04:31.027Z,11.30
2023-03-30T19:06:04.242Z,11.30
2023-03-30T19:07:37.350Z,11.30
2023-03-30T19:09:11.346Z,11.30
2023-03-30T19:10:45.450Z,11.30
2023-03-30T19:12:19.090Z,11.30
2023-03-30T19:13:52.104Z,11.30
2023-03-30T19:15:27.934Z,11.30
2023-03-30T19:17:00.862Z,11.40
2023-03-30T19:18:33.855Z,11.40
2023-03-30T19:20:09.606Z,11.40
2023-03-30T19:21:43.146Z,11.50
2023-03-30T19:23:16.804Z,11.50
2023-03-30T19:24:49.890Z,11.60
2023-03-30T19:26:23.247Z,11.50
2023-03-30T19:28:03.221Z,11.50
2023-03-30T19:29:36.815Z,11.50
2023-03-30T19:31:13.333Z,11.40
2023-03-30T19:32:48.303Z,11.40
2023-03-30T19:34:21.380Z,11.40
2023-03-30T19:35:55.684Z,11.30
2023-03-30T19:37:28.709Z,11.30
2023-03-30T19:39:01.619Z,11.40
2023-03-30T19:40:34.580Z,11.40
2023-03-30T19:42:09.224Z,11.50
2023-03-30T19:43:42.348Z,11.50
2023-03-30T19:45:16.629Z,11.60
2023-03-30T19:46:49.556Z,11.60
2023-03-30T19:48:22.699Z,11.70
2023-03-30T19:49:56.659Z,11.80
2023-03-30T19:51:31.472Z,11.90
2023-03-30T19:53:04.397Z,11.90
2023-03-30T19:54:37.356Z,12.00
2023-03-30T19:56:11.460Z,12.00
2023-03-30T19:57:44.787Z,12.00
2023-03-30T19:59:19.916Z,12.00
2023-03-30T20:00:54.167Z,12.00
2023-03-30T20:02:27.139Z,12.00
2023-03-30T20:04:00.856Z,12.00
2023-03-30T20:05:33.784Z,12.00
2023-03-30T20:07:08.187Z,12.00
2023-03-30T20:08:41.494Z,12.00
2023-03-30T20:10:16.541Z,12.00
2023-03-30T20:11:49.584Z,12.00
2023-03-30T20:13:23.941Z,12.00
2023-03-30T20:14:58.833Z,12.00
2023-03-30T20:16:35.095Z,12.00
2023-03-30T20:18:08.189Z,12.00
2023-03-30T20:19:42.640Z,11.90
2023-03-30T20:21:15.779Z,11.90
2023-03-30T20:22:53.333Z,11.90
2023-03-30T20:24:31.834Z,11.80
2023-03-30T20:26:05.374Z,11.80
2023-03-30T20:27:38.484Z,11.80
2023-03-30T20:29:11.417Z,11.80
2023-03-30T20:30:44.378Z,11.80
2023-03-30T20:32:17.684Z,11.80
2023-03-30T20:33:50.744Z,11.80
2023-03-30T20:35:25.486Z,11.80
2023-03-30T20:36:58.458Z,11.80
2023-03-30T20:38:33.065Z,11.70
2023-03-30T20:40:09.929Z,11.70
2023-03-30T20:41:42.900Z,11.70
2023-03-30T20:43:15.848Z,11.60
2023-03-30T20:44:50.139Z,11.60
2023-03-30T20:46:26.039Z,11.50
2023-03-30T20:47:59.779Z,11.40